sensor_id;sensor_type;location;lat;lon;timestamp;P1;durP1;ratioP1;P2;durP2;ratioP2
19127;SDS011;9696;53.686;10.094;2023-07-02T00:01:31;0.10;;;0.10;;
19127;SDS011;9696;53.686;10.094;2023-07-02T00:04:00;0.00;;;0.00;;
19127;SDS011;9696;53.686;10.094;2023-07-02T00:06:30;0.10;;;0.10;;
19127;SDS011;9696;53.686;10.094;2023-07-02T00:09:00;0.00;;;0.00;;
19127;SDS011;9696;53.686;10.094;2023-07-02T00:11:30;0.00;;;0.00;;
19127;SDS011;9696;53.686;10.094;2023-07-02T00:13:59;0.00;;;0.00;;
19127;SDS011;9696;53.686;10.094;2023-07-02T00:16:28;0.07;;;0.07;;
19127;SDS011;9696;53.686;10.094;2023-07-02T00:18:58;0.00;;;0.00;;
19127;SDS011;9696;53.686;10.094;2023-07-02T00:21:27;0.10;;;0.10;;
19127;SDS011;9696;53.686;10.094;2023-07-02T00:23:57;0.00;;;0.00;;
19127;SDS011;9696;53.686;10.094;2023-07-02T00:26:27;0.10;;;0.10;;
19127;SDS011;9696;53.686;10.094;2023-07-02T00:28:56;0.00;;;0.00;;
19127;SDS011;9696;53.686;10.094;2023-07-02T00:31:26;0.00;;;0.00;;
19127;SDS011;9696;53.686;10.094;2023-07-02T00:33:56;0.00;;;0.00;;
19127;SDS011;9696;53.686;10.094;2023-07-02T00:36:25;0.00;;;0.00;;
19127;SDS011;9696;53.686;10.094;2023-07-02T00:38:55;0.00;;;0.00;;
19127;SDS011;9696;53.686;10.094;2023-07-02T00:41:26;0.07;;;0.07;;
19127;SDS011;9696;53.686;10.094;2023-07-02T00:43:56;0.00;;;0.00;;
19127;SDS011;9696;53.686;10.094;2023-07-02T00:46:25;0.10;;;0.10;;
19127;SDS011;9696;53.686;10.094;2023-07-02T00:48:55;3.93;;;1.27;;
19127;SDS011;9696;53.686;10.094;2023-07-02T00:51:24;4.10;;;2.20;;
19127;SDS011;9696;53.686;10.094;2023-07-02T00:53:55;11.00;;;2.10;;
19127;SDS011;9696;53.686;10.094;2023-07-02T00:56:26;5.57;;;2.37;;
19127;SDS011;9696;53.686;10.094;2023-07-02T00:58:56;15.30;;;2.70;;
19127;SDS011;9696;53.686;10.094;2023-07-02T01:01:26;5.47;;;2.40;;
19127;SDS011;9696;53.686;10.094;2023-07-02T01:03:57;7.63;;;2.10;;
19127;SDS011;9696;53.686;10.094;2023-07-02T01:06:27;5.60;;;2.40;;
19127;SDS011;9696;53.686;10.094;2023-07-02T01:08:59;12.20;;;2.33;;
19127;SDS011;9696;53.686;10.094;2023-07-02T01:11:31;5.93;;;2.70;;
19127;SDS011;9696;53.686;10.094;2023-07-02T01:14:08;9.57;;;2.40;;
19127;SDS011;9696;53.686;10.094;2023-07-02T01:16:40;9.40;;;2.60;;
19127;SDS011;9696;53.686;10.094;2023-07-02T01:19:11;5.03;;;2.47;;
19127;SDS011;9696;53.686;10.094;2023-07-02T01:21:47;9.67;;;2.60;;
19127;SDS011;9696;53.686;10.094;2023-07-02T01:24:17;10.33;;;2.60;;
19127;SDS011;9696;53.686;10.094;2023-07-02T01:26:49;6.97;;;2.50;;
19127;SDS011;9696;53.686;10.094;2023-07-02T01:29:19;9.33;;;3.40;;
19127;SDS011;9696;53.686;10.094;2023-07-02T01:31:48;5.63;;;2.70;;
19127;SDS011;9696;53.686;10.094;2023-07-02T01:34:17;10.20;;;2.67;;
19127;SDS011;9696;53.686;10.094;2023-07-02T01:36:48;7.43;;;2.70;;
19127;SDS011;9696;53.686;10.094;2023-07-02T01:39:17;4.87;;;2.43;;
19127;SDS011;9696;53.686;10.094;2023-07-02T01:41:49;13.93;;;2.93;;
19127;SDS011;9696;53.686;10.094;2023-07-02T01:44:19;7.47;;;3.07;;
19127;SDS011;9696;53.686;10.094;2023-07-02T01:46:49;7.37;;;2.63;;
19127;SDS011;9696;53.686;10.094;2023-07-02T01:49:19;10.20;;;2.63;;
19127;SDS011;9696;53.686;10.094;2023-07-02T01:51:50;6.97;;;2.90;;
19127;SDS011;9696;53.686;10.094;2023-07-02T01:54:20;6.90;;;2.60;;
19127;SDS011;9696;53.686;10.094;2023-07-02T01:56:54;9.50;;;2.60;;
19127;SDS011;9696;53.686;10.094;2023-07-02T01:59:23;7.27;;;2.90;;
19127;SDS011;9696;53.686;10.094;2023-07-02T02:01:53;12.67;;;2.83;;
19127;SDS011;9696;53.686;10.094;2023-07-02T02:04:22;11.10;;;2.93;;
19127;SDS011;9696;53.686;10.094;2023-07-02T02:06:53;5.60;;;3.13;;
19127;SDS011;9696;53.686;10.094;2023-07-02T02:09:23;14.67;;;2.90;;
19127;SDS011;9696;53.686;10.094;2023-07-02T02:11:55;16.20;;;3.10;;
19127;SDS011;9696;53.686;10.094;2023-07-02T02:14:24;5.83;;;3.10;;
19127;SDS011;9696;53.686;10.094;2023-07-02T02:16:53;10.00;;;3.33;;
19127;SDS011;9696;53.686;10.094;2023-07-02T02:19:23;6.40;;;3.37;;
19127;SDS011;9696;53.686;10.094;2023-07-02T02:21:53;9.07;;;3.27;;
19127;SDS011;9696;53.686;10.094;2023-07-02T02:24:23;3.83;;;3.07;;
19127;SDS011;9696;53.686;10.094;2023-07-02T02:26:53;8.47;;;3.60;;
19127;SDS011;9696;53.686;10.094;2023-07-02T02:29:22;10.10;;;3.90;;
19127;SDS011;9696;53.686;10.094;2023-07-02T02:31:51;10.60;;;3.53;;
19127;SDS011;9696;53.686;10.094;2023-07-02T02:34:21;13.30;;;3.50;;
19127;SDS011;9696;53.686;10.094;2023-07-02T02:36:50;5.70;;;3.50;;
19127;SDS011;9696;53.686;10.094;2023-07-02T02:39:24;7.90;;;3.10;;
19127;SDS011;9696;53.686;10.094;2023-07-02T02:41:53;18.50;;;3.60;;
19127;SDS011;9696;53.686;10.094;2023-07-02T02:44:22;7.40;;;3.23;;
19127;SDS011;9696;53.686;10.094;2023-07-02T02:46:51;7.27;;;3.27;;
19127;SDS011;9696;53.686;10.094;2023-07-02T02:49:20;9.07;;;3.73;;
19127;SDS011;9696;53.686;10.094;2023-07-02T02:51:49;5.67;;;3.17;;
19127;SDS011;9696;53.686;10.094;2023-07-02T02:54:18;7.23;;;3.27;;
19127;SDS011;9696;53.686;10.094;2023-07-02T02:56:49;11.70;;;3.40;;
19127;SDS011;9696;53.686;10.094;2023-07-02T02:59:18;7.77;;;3.30;;
19127;SDS011;9696;53.686;10.094;2023-07-02T03:01:47;11.30;;;3.33;;
19127;SDS011;9696;53.686;10.094;2023-07-02T03:04:18;15.47;;;3.27;;
19127;SDS011;9696;53.686;10.094;2023-07-02T03:06:51;10.00;;;3.70;;
19127;SDS011;9696;53.686;10.094;2023-07-02T03:09:20;11.17;;;3.17;;
19127;SDS011;9696;53.686;10.094;2023-07-02T03:11:51;11.40;;;3.23;;
19127;SDS011;9696;53.686;10.094;2023-07-02T03:14:20;8.07;;;3.67;;
19127;SDS011;9696;53.686;10.094;2023-07-02T03:16:49;8.10;;;3.53;;
19127;SDS011;9696;53.686;10.094;2023-07-02T03:19:18;11.27;;;3.97;;
19127;SDS011;9696;53.686;10.094;2023-07-02T03:21:47;6.33;;;3.57;;
19127;SDS011;9696;53.686;10.094;2023-07-02T03:24:17;10.03;;;3.40;;
19127;SDS011;9696;53.686;10.094;2023-07-02T03:26:46;8.70;;;3.20;;
19127;SDS011;9696;53.686;10.094;2023-07-02T03:29:16;5.87;;;2.90;;
19127;SDS011;9696;53.686;10.094;2023-07-02T03:31:47;9.73;;;3.70;;
19127;SDS011;9696;53.686;10.094;2023-07-02T03:34:16;16.57;;;3.57;;
19127;SDS011;9696;53.686;10.094;2023-07-02T03:36:45;7.10;;;3.20;;
19127;SDS011;9696;53.686;10.094;2023-07-02T03:39:14;11.53;;;3.97;;
19127;SDS011;9696;53.686;10.094;2023-07-02T03:41:44;6.73;;;3.07;;
19127;SDS011;9696;53.686;10.094;2023-07-02T03:44:13;11.50;;;3.33;;
19127;SDS011;9696;53.686;10.094;2023-07-02T03:46:44;11.17;;;3.87;;
19127;SDS011;9696;53.686;10.094;2023-07-02T03:49:13;7.00;;;3.43;;
19127;SDS011;9696;53.686;10.094;2023-07-02T03:51:42;10.73;;;4.43;;
19127;SDS011;9696;53.686;10.094;2023-07-02T03:54:11;8.33;;;3.93;;
19127;SDS011;9696;53.686;10.094;2023-07-02T03:56:40;10.03;;;3.63;;
19127;SDS011;9696;53.686;10.094;2023-07-02T03:59:09;14.77;;;3.93;;
19127;SDS011;9696;53.686;10.094;2023-07-02T04:01:38;12.97;;;3.80;;
19127;SDS011;9696;53.686;10.094;2023-07-02T04:04:09;13.03;;;3.57;;
19127;SDS011;9696;53.686;10.094;2023-07-02T04:06:39;13.60;;;3.70;;
19127;SDS011;9696;53.686;10.094;2023-07-02T04:09:08;15.47;;;3.93;;
19127;SDS011;9696;53.686;10.094;2023-07-02T04:11:37;7.80;;;3.43;;
19127;SDS011;9696;53.686;10.094;2023-07-02T04:14:06;12.63;;;3.80;;
19127;SDS011;9696;53.686;10.094;2023-07-02T04:16:35;14.17;;;3.93;;
19127;SDS011;9696;53.686;10.094;2023-07-02T04:19:04;14.33;;;4.67;;
19127;SDS011;9696;53.686;10.094;2023-07-02T04:21:35;8.57;;;3.40;;
19127;SDS011;9696;53.686;10.094;2023-07-02T04:24:04;22.00;;;5.27;;
19127;SDS011;9696;53.686;10.094;2023-07-02T04:26:34;13.13;;;4.20;;
19127;SDS011;9696;53.686;10.094;2023-07-02T04:29:23;12.73;;;3.77;;
19127;SDS011;9696;53.686;10.094;2023-07-02T04:31:52;12.30;;;4.03;;
19127;SDS011;9696;53.686;10.094;2023-07-02T04:34:22;17.00;;;4.40;;
19127;SDS011;9696;53.686;10.094;2023-07-02T04:36:52;12.50;;;3.70;;
19127;SDS011;9696;53.686;10.094;2023-07-02T04:39:23;21.57;;;4.40;;
19127;SDS011;9696;53.686;10.094;2023-07-02T04:41:52;14.50;;;4.43;;
19127;SDS011;9696;53.686;10.094;2023-07-02T04:44:21;19.70;;;5.03;;
19127;SDS011;9696;53.686;10.094;2023-07-02T04:46:56;18.47;;;4.67;;
19127;SDS011;9696;53.686;10.094;2023-07-02T04:49:26;19.77;;;4.77;;
19127;SDS011;9696;53.686;10.094;2023-07-02T04:51:56;17.30;;;5.27;;
19127;SDS011;9696;53.686;10.094;2023-07-02T04:54:25;18.50;;;4.87;;
19127;SDS011;9696;53.686;10.094;2023-07-02T04:56:55;13.67;;;4.77;;
19127;SDS011;9696;53.686;10.094;2023-07-02T04:59:25;17.33;;;5.00;;
19127;SDS011;9696;53.686;10.094;2023-07-02T05:01:55;19.43;;;4.80;;
19127;SDS011;9696;53.686;10.094;2023-07-02T05:04:24;19.33;;;4.73;;
19127;SDS011;9696;53.686;10.094;2023-07-02T05:06:53;17.97;;;4.73;;
19127;SDS011;9696;53.686;10.094;2023-07-02T05:09:24;17.83;;;4.83;;
19127;SDS011;9696;53.686;10.094;2023-07-02T05:11:53;26.37;;;5.83;;
19127;SDS011;9696;53.686;10.094;2023-07-02T05:14:22;9.93;;;3.93;;
19127;SDS011;9696;53.686;10.094;2023-07-02T05:16:51;14.63;;;4.43;;
19127;SDS011;9696;53.686;10.094;2023-07-02T05:19:21;15.52;;;3.95;;
19127;SDS011;9696;53.686;10.094;2023-07-02T05:21:50;16.90;;;4.33;;
19127;SDS011;9696;53.686;10.094;2023-07-02T05:24:19;18.38;;;4.25;;
19127;SDS011;9696;53.686;10.094;2023-07-02T05:26:49;18.10;;;4.47;;
19127;SDS011;9696;53.686;10.094;2023-07-02T05:29:19;15.33;;;5.03;;
19127;SDS011;9696;53.686;10.094;2023-07-02T05:31:48;17.90;;;4.68;;
19127;SDS011;9696;53.686;10.094;2023-07-02T05:34:17;18.73;;;4.82;;
19127;SDS011;9696;53.686;10.094;2023-07-02T05:36:46;19.52;;;4.32;;
19127;SDS011;9696;53.686;10.094;2023-07-02T05:39:15;14.48;;;3.72;;
19127;SDS011;9696;53.686;10.094;2023-07-02T05:41:45;10.07;;;3.35;;
19127;SDS011;9696;53.686;10.094;2023-07-02T05:44:15;13.88;;;4.25;;
19127;SDS011;9696;53.686;10.094;2023-07-02T05:46:44;18.35;;;4.45;;
19127;SDS011;9696;53.686;10.094;2023-07-02T05:49:13;12.32;;;3.78;;
19127;SDS011;9696;53.686;10.094;2023-07-02T05:51:43;17.83;;;4.03;;
19127;SDS011;9696;53.686;10.094;2023-07-02T05:54:12;17.30;;;4.20;;
19127;SDS011;9696;53.686;10.094;2023-07-02T05:56:41;11.88;;;3.78;;
19127;SDS011;9696;53.686;10.094;2023-07-02T05:59:10;15.13;;;3.78;;
19127;SDS011;9696;53.686;10.094;2023-07-02T06:01:45;14.07;;;4.15;;
19127;SDS011;9696;53.686;10.094;2023-07-02T06:04:15;20.10;;;4.25;;
19127;SDS011;9696;53.686;10.094;2023-07-02T06:06:44;11.13;;;3.88;;
19127;SDS011;9696;53.686;10.094;2023-07-02T06:09:13;9.60;;;3.80;;
19127;SDS011;9696;53.686;10.094;2023-07-02T06:11:42;16.83;;;3.80;;
19127;SDS011;9696;53.686;10.094;2023-07-02T06:14:11;16.23;;;4.18;;
19127;SDS011;9696;53.686;10.094;2023-07-02T06:16:40;15.88;;;4.18;;
19127;SDS011;9696;53.686;10.094;2023-07-02T06:19:11;13.07;;;4.20;;
19127;SDS011;9696;53.686;10.094;2023-07-02T06:21:40;11.85;;;4.40;;
19127;SDS011;9696;53.686;10.094;2023-07-02T06:24:09;16.13;;;4.70;;
19127;SDS011;9696;53.686;10.094;2023-07-02T06:26:39;25.83;;;4.72;;
19127;SDS011;9696;53.686;10.094;2023-07-02T06:29:08;15.35;;;5.03;;
19127;SDS011;9696;53.686;10.094;2023-07-02T06:31:37;19.30;;;3.67;;
19127;SDS011;9696;53.686;10.094;2023-07-02T06:34:06;15.45;;;3.95;;
19127;SDS011;9696;53.686;10.094;2023-07-02T06:36:37;19.33;;;4.93;;
19127;SDS011;9696;53.686;10.094;2023-07-02T06:39:06;17.55;;;3.80;;
19127;SDS011;9696;53.686;10.094;2023-07-02T06:41:36;14.02;;;4.80;;
19127;SDS011;9696;53.686;10.094;2023-07-02T06:44:06;16.30;;;4.57;;
19127;SDS011;9696;53.686;10.094;2023-07-02T06:46:35;11.35;;;3.28;;
19127;SDS011;9696;53.686;10.094;2023-07-02T06:49:04;18.88;;;4.38;;
19127;SDS011;9696;53.686;10.094;2023-07-02T06:51:34;18.45;;;4.90;;
19127;SDS011;9696;53.686;10.094;2023-07-02T06:54:04;13.63;;;4.10;;
19127;SDS011;9696;53.686;10.094;2023-07-02T06:56:33;12.25;;;4.50;;
19127;SDS011;9696;53.686;10.094;2023-07-02T06:59:03;19.73;;;4.72;;
19127;SDS011;9696;53.686;10.094;2023-07-02T07:01:32;17.65;;;3.78;;
19127;SDS011;9696;53.686;10.094;2023-07-02T07:04:02;18.20;;;4.38;;
19127;SDS011;9696;53.686;10.094;2023-07-02T07:06:31;16.05;;;4.82;;
19127;SDS011;9696;53.686;10.094;2023-07-02T07:09:01;15.13;;;5.03;;
19127;SDS011;9696;53.686;10.094;2023-07-02T07:11:31;9.45;;;3.70;;
19127;SDS011;9696;53.686;10.094;2023-07-02T07:14:01;13.85;;;4.00;;
19127;SDS011;9696;53.686;10.094;2023-07-02T07:16:30;14.00;;;3.83;;
19127;SDS011;9696;53.686;10.094;2023-07-02T07:18:59;15.85;;;4.70;;
19127;SDS011;9696;53.686;10.094;2023-07-02T07:21:28;16.48;;;4.63;;
19127;SDS011;9696;53.686;10.094;2023-07-02T07:23:58;19.15;;;4.18;;
19127;SDS011;9696;53.686;10.094;2023-07-02T07:26:27;24.48;;;4.60;;
19127;SDS011;9696;53.686;10.094;2023-07-02T07:28:57;16.02;;;4.70;;
19127;SDS011;9696;53.686;10.094;2023-07-02T07:31:27;23.90;;;4.35;;
19127;SDS011;9696;53.686;10.094;2023-07-02T07:33:56;16.77;;;4.45;;
19127;SDS011;9696;53.686;10.094;2023-07-02T07:36:25;13.40;;;4.57;;
19127;SDS011;9696;53.686;10.094;2023-07-02T07:38:54;15.98;;;5.13;;
19127;SDS011;9696;53.686;10.094;2023-07-02T07:41:26;22.35;;;4.88;;
19127;SDS011;9696;53.686;10.094;2023-07-02T07:43:55;17.20;;;4.70;;
19127;SDS011;9696;53.686;10.094;2023-07-02T07:46:25;26.08;;;5.38;;
19127;SDS011;9696;53.686;10.094;2023-07-02T07:48:55;16.95;;;4.65;;
19127;SDS011;9696;53.686;10.094;2023-07-02T07:51:24;22.77;;;4.80;;
19127;SDS011;9696;53.686;10.094;2023-07-02T07:53:56;18.13;;;5.45;;
19127;SDS011;9696;53.686;10.094;2023-07-02T07:56:25;14.38;;;3.97;;
19127;SDS011;9696;53.686;10.094;2023-07-02T07:58:55;17.08;;;3.97;;
19127;SDS011;9696;53.686;10.094;2023-07-02T08:01:25;16.02;;;4.07;;
19127;SDS011;9696;53.686;10.094;2023-07-02T08:03:55;26.60;;;4.93;;
19127;SDS011;9696;53.686;10.094;2023-07-02T08:06:24;17.48;;;5.18;;
19127;SDS011;9696;53.686;10.094;2023-07-02T08:08:54;14.35;;;4.25;;
19127;SDS011;9696;53.686;10.094;2023-07-02T08:11:23;16.85;;;3.92;;
19127;SDS011;9696;53.686;10.094;2023-07-02T08:13:52;10.88;;;3.88;;
19127;SDS011;9696;53.686;10.094;2023-07-02T08:16:22;21.42;;;4.65;;
19127;SDS011;9696;53.686;10.094;2023-07-02T08:18:52;15.23;;;3.80;;
19127;SDS011;9696;53.686;10.094;2023-07-02T08:21:21;22.00;;;4.30;;
19127;SDS011;9696;53.686;10.094;2023-07-02T08:23:50;11.82;;;4.32;;
19127;SDS011;9696;53.686;10.094;2023-07-02T08:26:20;13.13;;;4.38;;
19127;SDS011;9696;53.686;10.094;2023-07-02T08:28:49;14.70;;;4.32;;
19127;SDS011;9696;53.686;10.094;2023-07-02T08:31:18;12.43;;;4.43;;
19127;SDS011;9696;53.686;10.094;2023-07-02T08:33:49;14.68;;;3.78;;
19127;SDS011;9696;53.686;10.094;2023-07-02T08:36:18;16.25;;;4.93;;
19127;SDS011;9696;53.686;10.094;2023-07-02T08:38:47;13.27;;;3.80;;
19127;SDS011;9696;53.686;10.094;2023-07-02T08:41:17;13.48;;;4.32;;
19127;SDS011;9696;53.686;10.094;2023-07-02T08:43:55;20.15;;;4.53;;
19127;SDS011;9696;53.686;10.094;2023-07-02T08:46:31;22.08;;;4.88;;
19127;SDS011;9696;53.686;10.094;2023-07-02T08:49:02;16.20;;;4.40;;
19127;SDS011;9696;53.686;10.094;2023-07-02T08:51:31;17.10;;;4.53;;
19127;SDS011;9696;53.686;10.094;2023-07-02T08:54:00;11.02;;;4.15;;
19127;SDS011;9696;53.686;10.094;2023-07-02T08:56:30;10.20;;;3.75;;
19127;SDS011;9696;53.686;10.094;2023-07-02T08:58:59;15.60;;;3.97;;
19127;SDS011;9696;53.686;10.094;2023-07-02T09:01:28;14.88;;;4.38;;
19127;SDS011;9696;53.686;10.094;2023-07-02T09:03:58;13.13;;;4.03;;
19127;SDS011;9696;53.686;10.094;2023-07-02T09:06:30;13.98;;;3.90;;
19127;SDS011;9696;53.686;10.094;2023-07-02T09:09:03;12.50;;;3.83;;
19127;SDS011;9696;53.686;10.094;2023-07-02T09:11:33;11.82;;;3.85;;
19127;SDS011;9696;53.686;10.094;2023-07-02T09:14:02;14.25;;;3.78;;
19127;SDS011;9696;53.686;10.094;2023-07-02T09:16:32;14.20;;;4.20;;
19127;SDS011;9696;53.686;10.094;2023-07-02T09:19:04;10.30;;;3.47;;
19127;SDS011;9696;53.686;10.094;2023-07-02T09:21:40;10.13;;;2.90;;
19127;SDS011;9696;53.686;10.094;2023-07-02T09:24:15;9.23;;;3.08;;
19127;SDS011;9696;53.686;10.094;2023-07-02T09:26:45;7.97;;;2.63;;
19127;SDS011;9696;53.686;10.094;2023-07-02T09:29:20;14.77;;;3.42;;
19127;SDS011;9696;53.686;10.094;2023-07-02T09:31:51;8.77;;;2.70;;
19127;SDS011;9696;53.686;10.094;2023-07-02T09:34:26;9.57;;;2.60;;
19127;SDS011;9696;53.686;10.094;2023-07-02T09:36:59;12.07;;;3.15;;
19127;SDS011;9696;53.686;10.094;2023-07-02T09:39:29;5.50;;;2.35;;
19127;SDS011;9696;53.686;10.094;2023-07-02T09:42:00;9.80;;;3.00;;
19127;SDS011;9696;53.686;10.094;2023-07-02T09:44:31;6.45;;;2.47;;
19127;SDS011;9696;53.686;10.094;2023-07-02T09:47:02;9.98;;;2.63;;
19127;SDS011;9696;53.686;10.094;2023-07-02T09:49:35;8.63;;;2.28;;
19127;SDS011;9696;53.686;10.094;2023-07-02T09:52:09;11.25;;;2.50;;
19127;SDS011;9696;53.686;10.094;2023-07-02T09:54:41;8.68;;;3.30;;
19127;SDS011;9696;53.686;10.094;2023-07-02T09:57:11;14.13;;;2.92;;
19127;SDS011;9696;53.686;10.094;2023-07-02T09:59:41;9.55;;;2.88;;
19127;SDS011;9696;53.686;10.094;2023-07-02T10:02:12;12.35;;;2.70;;
19127;SDS011;9696;53.686;10.094;2023-07-02T10:04:43;9.98;;;2.92;;
19127;SDS011;9696;53.686;10.094;2023-07-02T10:07:26;8.88;;;2.78;;
19127;SDS011;9696;53.686;10.094;2023-07-02T10:09:57;8.90;;;2.58;;
19127;SDS011;9696;53.686;10.094;2023-07-02T10:12:28;13.48;;;3.10;;
19127;SDS011;9696;53.686;10.094;2023-07-02T10:14:59;7.50;;;2.65;;
19127;SDS011;9696;53.686;10.094;2023-07-02T10:17:29;6.93;;;2.35;;
19127;SDS011;9696;53.686;10.094;2023-07-02T10:20:01;5.45;;;2.45;;
19127;SDS011;9696;53.686;10.094;2023-07-02T10:22:43;8.25;;;2.20;;
19127;SDS011;9696;53.686;10.094;2023-07-02T10:25:23;7.28;;;2.20;;
19127;SDS011;9696;53.686;10.094;2023-07-02T10:27:54;7.07;;;2.30;;
19127;SDS011;9696;53.686;10.094;2023-07-02T10:30:32;10.85;;;2.08;;
19127;SDS011;9696;53.686;10.094;2023-07-02T10:33:07;8.40;;;2.08;;
19127;SDS011;9696;53.686;10.094;2023-07-02T10:35:38;10.18;;;1.90;;
19127;SDS011;9696;53.686;10.094;2023-07-02T10:38:14;8.77;;;2.40;;
19127;SDS011;9696;53.686;10.094;2023-07-02T10:40:53;13.07;;;2.28;;
19127;SDS011;9696;53.686;10.094;2023-07-02T10:43:25;5.18;;;2.00;;
19127;SDS011;9696;53.686;10.094;2023-07-02T10:45:57;3.65;;;1.67;;
19127;SDS011;9696;53.686;10.094;2023-07-02T10:48:29;8.65;;;1.70;;
19127;SDS011;9696;53.686;10.094;2023-07-02T10:50:59;6.93;;;1.73;;
19127;SDS011;9696;53.686;10.094;2023-07-02T10:53:41;14.38;;;1.90;;
19127;SDS011;9696;53.686;10.094;2023-07-02T10:56:15;12.30;;;2.38;;
19127;SDS011;9696;53.686;10.094;2023-07-02T10:58:46;6.45;;;2.17;;
19127;SDS011;9696;53.686;10.094;2023-07-02T11:01:22;6.55;;;1.88;;
19127;SDS011;9696;53.686;10.094;2023-07-02T11:03:55;8.73;;;2.20;;
19127;SDS011;9696;53.686;10.094;2023-07-02T11:06:26;7.95;;;1.80;;
19127;SDS011;9696;53.686;10.094;2023-07-02T11:08:57;8.68;;;1.75;;
19127;SDS011;9696;53.686;10.094;2023-07-02T11:11:27;9.00;;;1.80;;
19127;SDS011;9696;53.686;10.094;2023-07-02T11:13:56;7.20;;;1.80;;
19127;SDS011;9696;53.686;10.094;2023-07-02T11:16:26;5.85;;;1.70;;
19127;SDS011;9696;53.686;10.094;2023-07-02T11:19:05;6.15;;;1.48;;
19127;SDS011;9696;53.686;10.094;2023-07-02T11:21:36;6.60;;;1.67;;
19127;SDS011;9696;53.686;10.094;2023-07-02T11:24:07;8.05;;;1.92;;
19127;SDS011;9696;53.686;10.094;2023-07-02T11:26:37;9.27;;;2.17;;
19127;SDS011;9696;53.686;10.094;2023-07-02T11:29:10;22.38;;;2.15;;
19127;SDS011;9696;53.686;10.094;2023-07-02T11:31:40;8.27;;;1.83;;
19127;SDS011;9696;53.686;10.094;2023-07-02T11:34:11;4.78;;;1.73;;
19127;SDS011;9696;53.686;10.094;2023-07-02T11:36:45;8.52;;;2.08;;
19127;SDS011;9696;53.686;10.094;2023-07-02T11:39:17;7.07;;;2.20;;
19127;SDS011;9696;53.686;10.094;2023-07-02T11:41:47;9.40;;;2.35;;
19127;SDS011;9696;53.686;10.094;2023-07-02T11:44:18;8.18;;;2.28;;
19127;SDS011;9696;53.686;10.094;2023-07-02T11:46:48;9.50;;;1.70;;
19127;SDS011;9696;53.686;10.094;2023-07-02T11:49:19;7.03;;;1.75;;
19127;SDS011;9696;53.686;10.094;2023-07-02T11:51:49;11.15;;;1.50;;
19127;SDS011;9696;53.686;10.094;2023-07-02T11:54:21;6.60;;;1.55;;
19127;SDS011;9696;53.686;10.094;2023-07-02T11:56:51;11.38;;;1.95;;
19127;SDS011;9696;53.686;10.094;2023-07-02T11:59:21;11.63;;;1.90;;
19127;SDS011;9696;53.686;10.094;2023-07-02T12:01:51;8.55;;;2.17;;
19127;SDS011;9696;53.686;10.094;2023-07-02T12:04:20;11.00;;;1.70;;
19127;SDS011;9696;53.686;10.094;2023-07-02T12:06:49;10.20;;;1.98;;
19127;SDS011;9696;53.686;10.094;2023-07-02T12:09:21;7.22;;;1.58;;
19127;SDS011;9696;53.686;10.094;2023-07-02T12:11:50;5.00;;;1.83;;
19127;SDS011;9696;53.686;10.094;2023-07-02T12:14:19;7.97;;;2.28;;
19127;SDS011;9696;53.686;10.094;2023-07-02T12:16:48;9.23;;;2.17;;
19127;SDS011;9696;53.686;10.094;2023-07-02T12:19:17;8.73;;;2.33;;
19127;SDS011;9696;53.686;10.094;2023-07-02T12:21:46;7.18;;;1.55;;
19127;SDS011;9696;53.686;10.094;2023-07-02T12:24:16;8.02;;;1.98;;
19127;SDS011;9696;53.686;10.094;2023-07-02T12:26:46;10.13;;;1.77;;
19127;SDS011;9696;53.686;10.094;2023-07-02T12:29:15;8.85;;;1.70;;
19127;SDS011;9696;53.686;10.094;2023-07-02T12:31:45;11.52;;;2.00;;
19127;SDS011;9696;53.686;10.094;2023-07-02T12:34:14;6.30;;;2.20;;
19127;SDS011;9696;53.686;10.094;2023-07-02T12:36:43;7.72;;;1.80;;
19127;SDS011;9696;53.686;10.094;2023-07-02T12:39:12;7.82;;;2.08;;
19127;SDS011;9696;53.686;10.094;2023-07-02T12:41:46;12.63;;;1.77;;
19127;SDS011;9696;53.686;10.094;2023-07-02T12:44:16;11.65;;;1.58;;
19127;SDS011;9696;53.686;10.094;2023-07-02T12:46:45;3.85;;;1.10;;
19127;SDS011;9696;53.686;10.094;2023-07-02T12:49:14;13.13;;;1.90;;
19127;SDS011;9696;53.686;10.094;2023-07-02T12:51:43;10.90;;;1.58;;
19127;SDS011;9696;53.686;10.094;2023-07-02T12:54:13;6.20;;;1.58;;
19127;SDS011;9696;53.686;10.094;2023-07-02T12:56:43;8.05;;;1.60;;
19127;SDS011;9696;53.686;10.094;2023-07-02T12:59:15;10.32;;;1.50;;
19127;SDS011;9696;53.686;10.094;2023-07-02T13:01:45;7.82;;;1.60;;
19127;SDS011;9696;53.686;10.094;2023-07-02T13:04:14;5.95;;;1.55;;
19127;SDS011;9696;53.686;10.094;2023-07-02T13:06:44;6.93;;;1.65;;
19127;SDS011;9696;53.686;10.094;2023-07-02T13:09:13;6.07;;;1.35;;
19127;SDS011;9696;53.686;10.094;2023-07-02T13:11:42;6.15;;;1.73;;
19127;SDS011;9696;53.686;10.094;2023-07-02T13:14:11;9.25;;;1.80;;
19127;SDS011;9696;53.686;10.094;2023-07-02T13:16:44;7.15;;;1.30;;
19127;SDS011;9696;53.686;10.094;2023-07-02T13:19:15;11.20;;;1.52;;
19127;SDS011;9696;53.686;10.094;2023-07-02T13:21:44;5.85;;;1.50;;
19127;SDS011;9696;53.686;10.094;2023-07-02T13:24:13;6.05;;;1.20;;
19127;SDS011;9696;53.686;10.094;2023-07-02T13:26:43;6.00;;;1.50;;
19127;SDS011;9696;53.686;10.094;2023-07-02T13:29:12;8.77;;;1.33;;
19127;SDS011;9696;53.686;10.094;2023-07-02T13:31:43;3.78;;;1.20;;
19127;SDS011;9696;53.686;10.094;2023-07-02T13:34:12;8.75;;;1.10;;
19127;SDS011;9696;53.686;10.094;2023-07-02T13:36:41;5.93;;;0.80;;
19127;SDS011;9696;53.686;10.094;2023-07-02T13:39:11;5.95;;;1.35;;
19127;SDS011;9696;53.686;10.094;2023-07-02T13:41:41;4.47;;;1.00;;
19127;SDS011;9696;53.686;10.094;2023-07-02T13:44:11;11.15;;;1.20;;
19127;SDS011;9696;53.686;10.094;2023-07-02T13:46:46;11.90;;;1.20;;
19127;SDS011;9696;53.686;10.094;2023-07-02T13:49:16;4.22;;;0.80;;
19127;SDS011;9696;53.686;10.094;2023-07-02T13:51:45;7.75;;;1.20;;
19127;SDS011;9696;53.686;10.094;2023-07-02T13:54:16;10.35;;;1.45;;
19127;SDS011;9696;53.686;10.094;2023-07-02T13:56:46;7.30;;;1.23;;
19127;SDS011;9696;53.686;10.094;2023-07-02T13:59:18;9.88;;;1.45;;
19127;SDS011;9696;53.686;10.094;2023-07-02T14:01:48;7.32;;;1.55;;
19127;SDS011;9696;53.686;10.094;2023-07-02T14:04:18;5.90;;;1.30;;
19127;SDS011;9696;53.686;10.094;2023-07-02T14:06:47;5.05;;;1.52;;
19127;SDS011;9696;53.686;10.094;2023-07-02T14:09:16;6.40;;;1.45;;
19127;SDS011;9696;53.686;10.094;2023-07-02T14:11:46;6.35;;;2.22;;
19127;SDS011;9696;53.686;10.094;2023-07-02T14:14:15;6.18;;;1.17;;
19127;SDS011;9696;53.686;10.094;2023-07-02T14:16:46;4.60;;;1.23;;
19127;SDS011;9696;53.686;10.094;2023-07-02T14:19:15;8.73;;;1.55;;
19127;SDS011;9696;53.686;10.094;2023-07-02T14:21:45;5.82;;;1.20;;
19127;SDS011;9696;53.686;10.094;2023-07-02T14:24:14;6.53;;;1.30;;
19127;SDS011;9696;53.686;10.094;2023-07-02T14:26:43;5.60;;;1.30;;
19127;SDS011;9696;53.686;10.094;2023-07-02T14:29:15;4.68;;;1.02;;
19127;SDS011;9696;53.686;10.094;2023-07-02T14:31:47;5.47;;;1.63;;
19127;SDS011;9696;53.686;10.094;2023-07-02T14:34:16;6.28;;;1.45;;
19127;SDS011;9696;53.686;10.094;2023-07-02T14:36:46;2.47;;;1.20;;
19127;SDS011;9696;53.686;10.094;2023-07-02T14:39:15;5.95;;;1.30;;
19127;SDS011;9696;53.686;10.094;2023-07-02T14:41:44;7.13;;;1.40;;
19127;SDS011;9696;53.686;10.094;2023-07-02T14:44:14;7.05;;;1.33;;
19127;SDS011;9696;53.686;10.094;2023-07-02T14:46:45;9.15;;;1.58;;
19127;SDS011;9696;53.686;10.094;2023-07-02T14:49:18;4.30;;;1.20;;
19127;SDS011;9696;53.686;10.094;2023-07-02T14:51:48;18.02;;;1.50;;
19127;SDS011;9696;53.686;10.094;2023-07-02T14:54:17;4.20;;;1.55;;
19127;SDS011;9696;53.686;10.094;2023-07-02T14:56:46;3.28;;;1.33;;
19127;SDS011;9696;53.686;10.094;2023-07-02T14:59:15;10.95;;;1.50;;